createdAt,value
2023-03-01T00:00:51.517Z,34.41
2023-03-01T00:03:28.129Z,34.45
2023-03-01T00:05:58.627Z,34.48
2023-03-01T00:08:29.441Z,34.74
2023-03-01T00:11:08.223Z,34.65
2023-03-01T00:13:38.506Z,34.81
2023-03-01T00:16:16.425Z,34.89
2023-03-01T00:18:48.608Z,35.09
2023-03-01T00:21:19.248Z,35.07
2023-03-01T00:23:50.056Z,35.07
2023-03-01T00:26:21.774Z,35.20
2023-03-01T00:28:52.812Z,35.16
2023-03-01T00:31:24.478Z,35.13
2023-03-01T00:33:58.837Z,35.27
2023-03-01T00:36:31.518Z,35.37
2023-03-01T00:39:02.096Z,35.47
2023-03-01T00:41:32.459Z,35.44
2023-03-01T00:44:02.825Z,35.58
2023-03-01T00:46:33.560Z,35.65
2023-03-01T00:49:05.334Z,35.85
2023-03-01T00:51:35.721Z,35.85
2023-03-01T00:54:06.051Z,36.02
2023-03-01T00:56:36.342Z,36.18
2023-03-01T00:59:07.120Z,36.03
2023-03-01T01:01:37.571Z,36.05
2023-03-01T01:04:12.900Z,35.98
2023-03-01T01:06:45.560Z,35.95
2023-03-01T01:09:18.457Z,36.05
2023-03-01T01:11:50.216Z,36.08
2023-03-01T01:14:21.401Z,36.09
2023-03-01T01:16:52.181Z,36.18
2023-03-01T01:19:22.423Z,36.09
2023-03-01T01:21:53.146Z,36.03
2023-03-01T01:24:23.547Z,36.02
2023-03-01T01:26:54.140Z,36.31
2023-03-01T01:29:24.739Z,36.22
2023-03-01T01:31:55.214Z,36.34
2023-03-01T01:34:25.717Z,36.39
2023-03-01T01:36:56.771Z,36.36
2023-03-01T01:39:27.315Z,36.44
2023-03-01T01:41:58.083Z,36.36
2023-03-01T01:44:29.433Z,36.46
2023-03-01T01:47:02.699Z,36.41
2023-03-01T01:49:35.468Z,36.33
2023-03-01T01:52:11.026Z,36.48
2023-03-01T01:54:48.294Z,36.37
2023-03-01T01:57:21.584Z,36.52
2023-03-01T01:59:54.398Z,36.35
2023-03-01T02:02:25.369Z,36.26
2023-03-01T02:05:10.960Z,36.28
2023-03-01T02:07:42.154Z,36.41
2023-03-01T02:10:13.691Z,36.38
2023-03-01T02:12:44.459Z,36.52
2023-03-01T02:15:14.994Z,36.42
2023-03-01T02:17:45.421Z,36.43
2023-03-01T02:20:21.125Z,36.30
2023-03-01T02:22:51.824Z,36.46
2023-03-01T02:25:38.169Z,36.46
2023-03-01T02:28:18.822Z,36.37
2023-03-01T02:31:04.760Z,36.37
2023-03-01T02:33:37.387Z,36.54
2023-03-01T02:36:10.620Z,36.48
2023-03-01T02:38:41.867Z,36.73
2023-03-01T02:41:14.153Z,36.73
2023-03-01T02:43:45.039Z,36.69
2023-03-01T02:46:19.262Z,36.97
2023-03-01T02:48:51.702Z,36.84
2023-03-01T02:51:34.899Z,37.06
2023-03-01T02:54:14.184Z,37.12
2023-03-01T02:56:48.857Z,37.20
2023-03-01T02:59:21.309Z,37.29
2023-03-01T03:01:51.998Z,37.23
2023-03-01T03:04:23.872Z,37.41
2023-03-01T03:06:54.140Z,37.46
2023-03-01T03:09:25.042Z,37.59
2023-03-01T03:11:55.341Z,37.66
2023-03-01T03:14:25.887Z,37.77
2023-03-01T03:16:56.525Z,37.77
2023-03-01T03:19:26.995Z,37.70
2023-03-01T03:21:57.755Z,37.85
2023-03-01T03:24:38.804Z,37.91
2023-03-01T03:27:10.652Z,37.95
2023-03-01T03:29:41.117Z,37.88
2023-03-01T03:32:11.509Z,38.02
2023-03-01T03:34:42.412Z,38.09
2023-03-01T03:37:33.324Z,38.21
2023-03-01T03:40:04.373Z,38.17
2023-03-01T03:42:34.922Z,38.31
2023-03-01T03:45:06.544Z,38.13
2023-03-01T03:47:37.027Z,38.14
2023-03-01T03:50:09.136Z,38.05
2023-03-01T03:52:39.858Z,38.05
2023-03-01T03:55:12.679Z,38.01
2023-03-01T03:57:44.317Z,38.04
2023-03-01T04:00:16.699Z,37.98
2023-03-01T04:02:49.187Z,38.14
2023-03-01T04:05:20.692Z,38.28
2023-03-01T04:08:01.769Z,38.23
2023-03-01T04:10:33.756Z,38.24
2023-03-01T04:13:04.447Z,38.35
2023-03-01T04:15:35.063Z,38.42
2023-03-01T04:18:05.980Z,38.41
2023-03-01T04:20:38.190Z,38.19
2023-03-01T04:23:11.980Z,38.21
2023-03-01T04:25:44.455Z,37.96
2023-03-01T04:28:15.369Z,37.99
2023-03-01T04:30:45.716Z,38.06
2023-03-01T04:33:16.425Z,38.03
2023-03-01T04:35:50.423Z,38.03
2023-03-01T04:38:22.383Z,37.96
2023-03-01T04:40:53.279Z,38.10
2023-03-01T04:43:23.544Z,38.04
2023-03-01T04:45:54.096Z,38.02
2023-03-01T04:48:25.971Z,38.08
2023-03-01T04:50:56.370Z,38.02
2023-03-01T04:53:26.864Z,38.09
2023-03-01T04:55:57.892Z,37.97
2023-03-01T04:58:29.910Z,37.83
2023-03-01T05:01:00.612Z,37.85
2023-03-01T05:03:31.570Z,37.92
2023-03-01T05:06:01.969Z,37.93
2023-03-01T05:08:34.975Z,37.67
2023-03-01T05:11:06.643Z,37.56
2023-03-01T05:13:37.749Z,37.42
2023-03-01T05:16:11.852Z,37.40
2023-03-01T05:18:43.064Z,37.41
2023-03-01T05:21:17.232Z,37.14
2023-03-01T05:23:48.418Z,37.23
2023-03-01T05:26:28.163Z,36.90
2023-03-01T05:28:59.659Z,36.93
2023-03-01T05:31:31.494Z,36.73
2023-03-01T05:34:03.163Z,36.62
2023-03-01T05:36:33.777Z,36.28
2023-03-01T05:39:04.449Z,36.08
2023-03-01T05:41:34.910Z,36.23
2023-03-01T05:44:05.803Z,35.68
2023-03-01T05:46:36.407Z,35.54
2023-03-01T05:49:07.472Z,35.57
2023-03-01T05:51:37.836Z,35.75
2023-03-01T05:54:09.009Z,35.33
2023-03-01T05:56:42.479Z,35.33
2023-03-01T05:59:13.086Z,35.16
2023-03-01T06:01:43.782Z,34.67
2023-03-01T06:04:14.118Z,34.72
2023-03-01T06:06:44.846Z,34.64
2023-03-01T06:09:15.584Z,34.55
2023-03-01T06:11:46.343Z,34.48
2023-03-01T06:14:16.790Z,34.19
2023-03-01T06:16:46.940Z,34.27
2023-03-01T06:19:17.266Z,34.00
2023-03-01T06:21:47.488Z,33.71
2023-03-01T06:24:18.383Z,33.51
2023-03-01T06:26:48.674Z,33.21
2023-03-01T06:29:18.926Z,32.95
2023-03-01T06:31:49.475Z,32.71
2023-03-01T06:34:20.242Z,32.51
2023-03-01T06:36:50.674Z,32.38
2023-03-01T06:39:21.048Z,32.15
2023-03-01T06:41:52.164Z,31.99
2023-03-01T06:44:23.792Z,31.84
2023-03-01T06:46:54.642Z,31.64
2023-03-01T06:49:25.079Z,31.50
2023-03-01T06:51:55.326Z,30.85
2023-03-01T06:54:26.391Z,30.70
2023-03-01T06:56:57.245Z,30.50
2023-03-01T06:59:27.635Z,30.37
2023-03-01T07:01:57.984Z,30.14
2023-03-01T07:04:29.656Z,29.82
2023-03-01T07:07:00.120Z,29.63
2023-03-01T07:09:30.575Z,29.85
2023-03-01T07:12:01.675Z,29.50
2023-03-01T07:14:32.314Z,29.20
2023-03-01T07:17:02.656Z,29.02
2023-03-01T07:19:33.109Z,28.66
2023-03-01T07:22:07.042Z,28.52
2023-03-01T07:24:37.809Z,28.44
2023-03-01T07:27:08.383Z,28.23
2023-03-01T07:29:39.093Z,28.15
2023-03-01T07:32:09.763Z,28.02
2023-03-01T07:34:40.532Z,27.91
2023-03-01T07:37:11.336Z,27.60
2023-03-01T07:39:41.504Z,27.44
2023-03-01T07:42:12.484Z,27.25
2023-03-01T07:44:42.864Z,26.84
2023-03-01T07:47:13.330Z,26.60
2023-03-01T07:49:43.593Z,26.33
2023-03-01T07:52:15.042Z,26.20
2023-03-01T07:54:48.514Z,25.96
2023-03-01T07:57:18.995Z,25.98
2023-03-01T07:59:49.477Z,25.57
2023-03-01T08:02:19.868Z,25.50
2023-03-01T08:04:50.740Z,25.59
2023-03-01T08:07:21.197Z,25.49
2023-03-01T08:09:51.698Z,25.34
2023-03-01T08:12:22.348Z,25.34
2023-03-01T08:14:52.984Z,25.39
2023-03-01T08:17:23.285Z,25.21
2023-03-01T08:19:53.869Z,25.27
2023-03-01T08:22:24.192Z,25.17
2023-03-01T08:24:56.560Z,25.24
2023-03-01T08:27:27.019Z,25.14
2023-03-01T08:29:57.512Z,25.09
2023-03-01T08:32:28.094Z,25.12
2023-03-01T08:34:58.942Z,25.03
2023-03-01T08:37:31.691Z,25.16
2023-03-01T08:40:02.461Z,25.21
2023-03-01T08:42:33.929Z,25.16
2023-03-01T08:45:04.347Z,25.38
2023-03-01T08:47:35.062Z,25.48
2023-03-01T08:50:07.015Z,25.61
2023-03-01T08:52:37.592Z,25.34
2023-03-01T08:55:13.160Z,25.53
2023-03-01T08:57:44.102Z,25.61
2023-03-01T09:00:16.615Z,25.16
2023-03-01T09:02:47.376Z,24.95
2023-03-01T09:05:20.243Z,24.99
2023-03-01T09:07:51.244Z,24.93
2023-03-01T09:10:22.028Z,24.68
2023-03-01T09:12:52.600Z,24.35
2023-03-01T09:15:23.291Z,24.47
2023-03-01T09:17:53.759Z,24.18
2023-03-01T09:20:24.361Z,24.13
2023-03-01T09:22:54.932Z,23.95
2023-03-01T09:25:25.845Z,23.77
2023-03-01T09:27:56.432Z,23.66
2023-03-01T09:30:26.930Z,23.54
2023-03-01T09:32:59.661Z,23.23
2023-03-01T09:35:30.334Z,23.12
2023-03-01T09:38:00.916Z,23.24
2023-03-01T09:40:31.934Z,22.84
2023-03-01T09:43:10.576Z,22.69
2023-03-01T09:45:43.352Z,22.36
2023-03-01T09:48:18.162Z,22.30
2023-03-01T09:50:57.591Z,22.29
2023-03-01T09:53:35.821Z,22.56
2023-03-01T09:56:15.409Z,22.62
2023-03-01T09:58:53.274Z,22.62
2023-03-01T10:01:36.445Z,22.78
2023-03-01T10:04:21.455Z,22.74
2023-03-01T10:07:03.307Z,22.69
2023-03-01T10:09:37.202Z,22.66
2023-03-01T10:12:12.528Z,22.95
2023-03-01T10:14:49.562Z,22.96
2023-03-01T10:17:25.828Z,22.74
2023-03-01T10:19:56.899Z,22.85
2023-03-01T10:22:30.257Z,22.49
2023-03-01T10:25:01.827Z,22.51
2023-03-01T10:27:39.072Z,22.50
2023-03-01T10:30:16.927Z,22.41
2023-03-01T10:32:49.781Z,22.23
2023-03-01T10:35:23.984Z,22.18
2023-03-01T10:38:03.382Z,22.11
2023-03-01T10:40:34.476Z,22.16
2023-03-01T10:43:06.562Z,22.21
2023-03-01T10:45:39.620Z,22.12
2023-03-01T10:48:14.911Z,21.97
2023-03-01T10:50:47.663Z,22.19
2023-03-01T10:53:29.616Z,22.39
2023-03-01T10:56:05.593Z,22.36
2023-03-01T10:58:38.530Z,22.34
2023-03-01T11:01:26.124Z,22.41
2023-03-01T11:04:15.453Z,22.58
2023-03-01T11:06:46.226Z,22.87
2023-03-01T11:09:22.314Z,22.79
2023-03-01T11:11:56.048Z,22.88
2023-03-01T11:14:28.270Z,22.95
2023-03-01T11:17:04.173Z,23.09
2023-03-01T11:19:38.184Z,23.47
2023-03-01T11:22:15.571Z,23.42
2023-03-01T11:24:57.293Z,23.42
2023-03-01T11:27:39.984Z,23.57
2023-03-01T11:30:17.420Z,23.58
2023-03-01T11:32:52.464Z,23.46
2023-03-01T11:35:25.494Z,23.56
2023-03-01T11:38:07.179Z,23.53
2023-03-01T11:40:41.782Z,23.57
2023-03-01T11:43:19.042Z,23.55
2023-03-01T11:46:13.176Z,23.46
2023-03-01T11:48:59.888Z,23.66
2023-03-01T11:51:42.907Z,23.83
2023-03-01T11:54:25.585Z,24.04
2023-03-01T11:56:59.466Z,24.27
2023-03-01T11:59:57.773Z,24.52
2023-03-01T12:02:48.876Z,24.58
2023-03-01T12:05:49.865Z,24.66
2023-03-01T12:08:24.833Z,24.77
2023-03-01T12:11:02.224Z,24.85
2023-03-01T12:13:59.541Z,24.81
2023-03-01T12:16:54.789Z,24.92
2023-03-01T12:19:36.570Z,25.13
2023-03-01T12:22:25.747Z,25.09
2023-03-01T12:25:19.501Z,25.21
2023-03-01T12:28:00.074Z,25.42
2023-03-01T12:30:41.844Z,25.47
2023-03-01T12:33:23.253Z,25.57
2023-03-01T12:36:12.460Z,25.74
2023-03-01T12:38:44.615Z,25.71
2023-03-01T12:41:38.850Z,25.74
2023-03-01T12:44:16.827Z,25.84
2023-03-01T12:46:58.807Z,26.07
2023-03-01T12:49:31.968Z,25.88
2023-03-01T12:52:05.654Z,26.07
2023-03-01T12:54:39.348Z,26.18
2023-03-01T12:57:17.237Z,26.27
2023-03-01T13:00:08.446Z,26.45
2023-03-01T13:02:43.091Z,26.66
2023-03-01T13:05:28.659Z,26.71
2023-03-01T13:08:03.092Z,26.93
2023-03-01T13:10:36.903Z,27.06
2023-03-01T13:13:20.976Z,27.25
2023-03-01T13:15:53.275Z,27.45
2023-03-01T13:18:35.741Z,27.49
2023-03-01T13:21:08.209Z,27.53
2023-03-01T13:23:40.543Z,27.59
2023-03-01T13:26:13.777Z,27.84
2023-03-01T13:28:53.130Z,27.82
2023-03-01T13:32:02.305Z,27.86
2023-03-01T13:34:58.196Z,28.01
2023-03-01T13:37:45.628Z,28.08
2023-03-01T13:40:54.296Z,28.07
2023-03-01T13:43:34.580Z,28.13
2023-03-01T13:46:11.923Z,28.15
2023-03-01T13:48:42.862Z,28.31
2023-03-01T13:51:15.058Z,28.37
2023-03-01T13:53:52.649Z,28.57
2023-03-01T13:56:28.524Z,28.61
2023-03-01T13:59:01.838Z,28.73
2023-03-01T14:01:36.461Z,28.79
2023-03-01T14:04:23.881Z,29.09
2023-03-01T14:06:58.242Z,29.00
2023-03-01T14:09:32.324Z,29.11
2023-03-01T14:12:33.933Z,29.32
2023-03-01T14:15:08.529Z,29.39
2023-03-01T14:17:46.569Z,29.61
2023-03-01T14:20:21.435Z,29.85
2023-03-01T14:22:53.642Z,29.92
2023-03-01T14:25:26.757Z,30.16
2023-03-01T14:28:15.476Z,30.20
2023-03-01T14:30:47.775Z,30.49
2023-03-01T14:33:25.695Z,30.62
2023-03-01T14:35:58.508Z,30.64
2023-03-01T14:38:35.523Z,30.67
2023-03-01T14:41:09.298Z,30.80
2023-03-01T14:43:40.758Z,30.89
2023-03-01T14:46:20.344Z,31.03
2023-03-01T14:48:53.399Z,31.02
2023-03-01T14:51:24.826Z,31.10
2023-03-01T14:53:55.851Z,31.17
2023-03-01T14:56:28.145Z,31.23
2023-03-01T14:59:01.173Z,31.35
2023-03-01T15:01:32.214Z,31.47
2023-03-01T15:04:03.249Z,31.60
2023-03-01T15:06:34.198Z,31.66
2023-03-01T15:09:05.746Z,31.81
2023-03-01T15:11:37.780Z,31.79
2023-03-01T15:14:29.000Z,31.86
2023-03-01T15:17:01.528Z,32.06
2023-03-01T15:19:32.641Z,32.10
2023-03-01T15:22:12.950Z,32.15
2023-03-01T15:24:44.299Z,32.13
2023-03-01T15:27:20.524Z,32.24
2023-03-01T15:29:53.461Z,32.26
2023-03-01T15:32:32.691Z,32.33
2023-03-01T15:35:24.467Z,32.40
2023-03-01T15:37:55.505Z,32.36
2023-03-01T15:40:32.566Z,32.51
2023-03-01T15:43:04.724Z,32.59
2023-03-01T15:45:38.336Z,32.57
2023-03-01T15:48:19.432Z,32.48
2023-03-01T15:50:57.647Z,32.35
2023-03-01T15:53:30.069Z,32.51
2023-03-01T15:56:02.344Z,32.65
2023-03-01T15:58:33.579Z,32.73
2023-03-01T16:01:04.078Z,32.88
2023-03-01T16:03:34.655Z,32.77
2023-03-01T16:06:09.995Z,32.84
2023-03-01T16:08:41.008Z,32.89
2023-03-01T16:11:18.491Z,32.67
2023-03-01T16:13:49.648Z,32.98
2023-03-01T16:16:23.454Z,32.83
2023-03-01T16:18:56.985Z,32.85
2023-03-01T16:21:28.199Z,33.18
2023-03-01T16:23:58.591Z,33.31
2023-03-01T16:26:29.355Z,33.29
2023-03-01T16:29:01.054Z,33.51
2023-03-01T16:31:31.797Z,33.66
2023-03-01T16:34:03.149Z,33.69
2023-03-01T16:36:34.357Z,33.74
2023-03-01T16:39:05.293Z,34.05
2023-03-01T16:41:35.680Z,34.16
2023-03-01T16:44:06.947Z,34.11
2023-03-01T16:46:38.217Z,34.00
2023-03-01T16:49:11.516Z,34.14
2023-03-01T16:51:45.097Z,34.16
2023-03-01T16:54:15.495Z,34.21
2023-03-01T16:56:45.849Z,34.18
2023-03-01T16:59:16.454Z,34.23
2023-03-01T17:01:48.299Z,34.20
2023-03-01T17:04:19.432Z,34.49
2023-03-01T17:06:51.906Z,34.59
2023-03-01T17:09:24.627Z,34.71
2023-03-01T17:11:55.340Z,34.71
2023-03-01T17:14:27.190Z,34.77
2023-03-01T17:16:57.743Z,34.94
2023-03-01T17:19:28.607Z,35.07
2023-03-01T17:22:01.438Z,34.76
2023-03-01T17:24:35.607Z,34.86
2023-03-01T17:27:06.303Z,35.28
2023-03-01T17:29:38.234Z,35.35
2023-03-01T17:32:09.501Z,35.33
2023-03-01T17:34:40.511Z,35.37
2023-03-01T17:37:11.763Z,35.74
2023-03-01T17:39:47.124Z,35.54
2023-03-01T17:42:19.305Z,36.10
2023-03-01T17:44:50.137Z,35.88
2023-03-01T17:47:21.648Z,36.03
2023-03-01T17:49:52.129Z,35.65
2023-03-01T17:52:24.202Z,35.87
2023-03-01T17:54:54.704Z,35.81
2023-03-01T17:57:25.211Z,36.03
2023-03-01T17:59:55.943Z,36.01
2023-03-01T18:02:27.059Z,35.89
2023-03-01T18:05:01.424Z,35.92
2023-03-01T18:07:32.942Z,36.15
2023-03-01T18:10:03.618Z,35.88
2023-03-01T18:12:34.617Z,35.85
2023-03-01T18:15:08.002Z,36.03
2023-03-01T18:17:39.424Z,35.86
2023-03-01T18:20:13.253Z,35.94
2023-03-01T18:22:44.310Z,35.99
2023-03-01T18:25:15.086Z,35.94
2023-03-01T18:27:45.826Z,36.06
2023-03-01T18:30:22.572Z,36.01
2023-03-01T18:32:56.579Z,35.98
2023-03-01T18:35:31.224Z,36.26
2023-03-01T18:38:02.053Z,36.38
2023-03-01T18:40:35.973Z,36.64
2023-03-01T18:43:07.629Z,37.23
2023-03-01T18:45:38.330Z,37.07
2023-03-01T18:48:09.236Z,37.49
2023-03-01T18:50:40.640Z,37.86
2023-03-01T18:53:11.071Z,38.39
2023-03-01T18:55:43.852Z,38.58
2023-03-01T18:58:14.411Z,38.58
2023-03-01T19:00:45.113Z,38.93
2023-03-01T19:03:15.670Z,39.19
2023-03-01T19:05:47.749Z,39.56
2023-03-01T19:08:18.733Z,40.01
2023-03-01T19:10:57.476Z,40.36
2023-03-01T19:13:27.981Z,40.90
2023-03-01T19:16:06.550Z,41.18
2023-03-01T19:18:39.700Z,41.39
2023-03-01T19:21:12.774Z,41.79
2023-03-01T19:23:47.760Z,42.10
2023-03-01T19:26:22.203Z,42.06
2023-03-01T19:28:53.116Z,42.25
2023-03-01T19:31:26.219Z,42.44
2023-03-01T19:34:09.895Z,42.65
2023-03-01T19:36:43.501Z,42.82
2023-03-01T19:39:15.393Z,43.35
2023-03-01T19:41:49.054Z,43.31
2023-03-01T19:44:24.644Z,43.56
2023-03-01T19:46:58.444Z,43.75
2023-03-01T19:49:30.193Z,43.66
2023-03-01T19:52:01.678Z,44.06
2023-03-01T19:54:33.489Z,43.89
2023-03-01T19:57:06.609Z,44.07
2023-03-01T19:59:37.275Z,43.92
2023-03-01T20:02:10.302Z,44.23
2023-03-01T20:04:42.735Z,44.21
2023-03-01T20:07:14.416Z,44.44
2023-03-01T20:09:45.770Z,44.02
2023-03-01T20:12:19.840Z,44.29
2023-03-01T20:14:52.443Z,44.40
2023-03-01T20:17:23.002Z,44.53
2023-03-01T20:19:53.557Z,44.63
2023-03-01T20:22:26.970Z,44.70
2023-03-01T20:24:57.457Z,44.57
2023-03-01T20:27:27.955Z,44.54
2023-03-01T20:29:58.574Z,44.62
2023-03-01T20:32:29.537Z,44.95
2023-03-01T20:35:00.056Z,45.08
2023-03-01T20:37:30.512Z,45.24
2023-03-01T20:40:01.266Z,45.45
2023-03-01T20:42:32.102Z,45.92
2023-03-01T20:45:02.959Z,46.36
2023-03-01T20:47:34.328Z,46.20
2023-03-01T20:50:05.093Z,46.32
2023-03-01T20:52:45.701Z,46.88
2023-03-01T20:55:17.984Z,46.88
2023-03-01T20:57:49.000Z,47.57
2023-03-01T21:00:21.208Z,47.45
2023-03-01T21:02:54.922Z,47.74
2023-03-01T21:05:40.435Z,48.09
2023-03-01T21:08:13.581Z,48.24
2023-03-01T21:10:48.556Z,48.58
2023-03-01T21:13:20.149Z,48.51
2023-03-01T21:15:58.350Z,48.77
2023-03-01T21:18:31.525Z,48.85
2023-03-01T21:21:02.755Z,48.88
2023-03-01T21:23:35.819Z,49.09
2023-03-01T21:26:10.228Z,49.39
2023-03-01T21:28:41.983Z,49.51
2023-03-01T21:31:15.372Z,49.97
2023-03-01T21:33:48.038Z,50.05
2023-03-01T21:36:19.622Z,50.83
2023-03-01T21:39:07.960Z,50.65
2023-03-01T21:41:38.957Z,51.11
2023-03-01T21:44:09.519Z,50.73
2023-03-01T21:46:41.023Z,51.16
2023-03-01T21:49:12.966Z,51.69
2023-03-01T21:51:43.664Z,52.01
2023-03-01T21:54:15.591Z,52.41
2023-03-01T21:56:47.174Z,52.92
2023-03-01T21:59:19.843Z,53.05
2023-03-01T22:01:53.010Z,53.46
2023-03-01T22:04:25.161Z,54.11
2023-03-01T22:06:55.738Z,53.90
2023-03-01T22:09:27.223Z,54.34
2023-03-01T22:12:01.842Z,54.01
2023-03-01T22:14:33.999Z,53.65
2023-03-01T22:17:04.416Z,53.34
2023-03-01T22:19:34.755Z,52.83
2023-03-01T22:22:05.773Z,52.66
2023-03-01T22:24:36.304Z,52.72
2023-03-01T22:27:07.105Z,52.55
2023-03-01T22:29:40.618Z,52.34
2023-03-01T22:32:11.672Z,52.20
2023-03-01T22:34:44.283Z,52.16
2023-03-01T22:37:15.606Z,52.04
2023-03-01T22:39:46.352Z,52.14
2023-03-01T22:42:18.401Z,52.15
2023-03-01T22:44:48.727Z,52.10
2023-03-01T22:47:19.715Z,52.12
2023-03-01T22:49:50.256Z,52.06
2023-03-01T22:52:20.675Z,52.00
2023-03-01T22:54:54.373Z,51.98
2023-03-01T22:57:25.468Z,51.96
2023-03-01T22:59:56.117Z,52.09
2023-03-01T23:02:27.248Z,52.33
2023-03-01T23:04:58.014Z,52.30
2023-03-01T23:07:28.699Z,52.44
2023-03-01T23:10:02.115Z,52.37
2023-03-01T23:12:32.970Z,52.42
2023-03-01T23:15:08.097Z,52.34
2023-03-01T23:17:38.685Z,52.55
2023-03-01T23:20:10.589Z,52.57
2023-03-01T23:22:41.324Z,52.60
2023-03-01T23:25:13.297Z,52.59
2023-03-01T23:27:43.849Z,52.68
2023-03-01T23:30:15.403Z,52.90
2023-03-01T23:32:46.808Z,53.00
2023-03-01T23:38:06.083Z,53.27
2023-03-01T23:40:41.531Z,53.40
2023-03-01T23:43:12.019Z,53.42
2023-03-01T23:45:43.897Z,53.71
2023-03-01T23:48:15.900Z,53.79
2023-03-01T23:50:46.447Z,53.67
2023-03-01T23:53:18.435Z,54.10
2023-03-01T23:55:54.053Z,54.12
2023-03-01T23:58:28.111Z,54.10
